sensor_id;sensor_type;location;lat;lon;timestamp;P1;durP1;ratioP1;P2;durP2;ratioP2
36855;SDS011;22788;51.434;6.786;2022-07-10T00:00:41;4.25;;;1.45;;
36855;SDS011;22788;51.434;6.786;2022-07-10T00:03:09;3.00;;;1.30;;
36855;SDS011;22788;51.434;6.786;2022-07-10T00:05:35;2.83;;;1.50;;
36855;SDS011;22788;51.434;6.786;2022-07-10T00:08:01;2.65;;;1.20;;
36855;SDS011;22788;51.434;6.786;2022-07-10T00:10:28;5.97;;;1.30;;
36855;SDS011;22788;51.434;6.786;2022-07-10T00:12:54;2.97;;;1.27;;
36855;SDS011;22788;51.434;6.786;2022-07-10T00:15:21;4.15;;;1.27;;
36855;SDS011;22788;51.434;6.786;2022-07-10T00:17:47;2.78;;;1.63;;
36855;SDS011;22788;51.434;6.786;2022-07-10T00:20:15;3.53;;;1.30;;
36855;SDS011;22788;51.434;6.786;2022-07-10T00:22:42;4.03;;;1.65;;
36855;SDS011;22788;51.434;6.786;2022-07-10T00:25:09;1.92;;;1.00;;
36855;SDS011;22788;51.434;6.786;2022-07-10T00:27:36;3.92;;;1.52;;
36855;SDS011;22788;51.434;6.786;2022-07-10T00:30:02;3.63;;;1.20;;
36855;SDS011;22788;51.434;6.786;2022-07-10T00:32:29;5.35;;;1.40;;
36855;SDS011;22788;51.434;6.786;2022-07-10T00:34:55;4.07;;;1.30;;
36855;SDS011;22788;51.434;6.786;2022-07-10T00:37:23;2.58;;;1.30;;
36855;SDS011;22788;51.434;6.786;2022-07-10T00:39:49;5.07;;;1.38;;
36855;SDS011;22788;51.434;6.786;2022-07-10T00:42:15;6.18;;;1.50;;
36855;SDS011;22788;51.434;6.786;2022-07-10T00:44:42;4.78;;;1.42;;
36855;SDS011;22788;51.434;6.786;2022-07-10T00:47:09;3.25;;;1.02;;
36855;SDS011;22788;51.434;6.786;2022-07-10T00:49:36;2.92;;;1.23;;
36855;SDS011;22788;51.434;6.786;2022-07-10T00:52:06;2.50;;;1.10;;
36855;SDS011;22788;51.434;6.786;2022-07-10T00:54:34;7.95;;;1.52;;
36855;SDS011;22788;51.434;6.786;2022-07-10T00:57:02;4.68;;;1.50;;
36855;SDS011;22788;51.434;6.786;2022-07-10T00:59:30;4.07;;;1.27;;
36855;SDS011;22788;51.434;6.786;2022-07-10T01:01:56;3.80;;;1.25;;
36855;SDS011;22788;51.434;6.786;2022-07-10T01:04:22;3.20;;;1.50;;
36855;SDS011;22788;51.434;6.786;2022-07-10T01:06:50;3.17;;;1.10;;
36855;SDS011;22788;51.434;6.786;2022-07-10T01:09:17;2.75;;;1.27;;
36855;SDS011;22788;51.434;6.786;2022-07-10T01:11:45;2.38;;;1.10;;
36855;SDS011;22788;51.434;6.786;2022-07-10T01:14:11;8.10;;;1.50;;
36855;SDS011;22788;51.434;6.786;2022-07-10T01:16:38;3.92;;;1.42;;
36855;SDS011;22788;51.434;6.786;2022-07-10T01:19:04;3.50;;;1.58;;
36855;SDS011;22788;51.434;6.786;2022-07-10T01:21:32;5.15;;;1.30;;
36855;SDS011;22788;51.434;6.786;2022-07-10T01:23:58;5.55;;;1.73;;
36855;SDS011;22788;51.434;6.786;2022-07-10T01:26:25;2.78;;;1.50;;
36855;SDS011;22788;51.434;6.786;2022-07-10T01:28:52;2.90;;;1.52;;
36855;SDS011;22788;51.434;6.786;2022-07-10T01:31:19;2.58;;;1.45;;
36855;SDS011;22788;51.434;6.786;2022-07-10T01:33:49;3.28;;;1.63;;
36855;SDS011;22788;51.434;6.786;2022-07-10T01:36:16;7.22;;;1.13;;
36855;SDS011;22788;51.434;6.786;2022-07-10T01:38:44;4.18;;;1.55;;
36855;SDS011;22788;51.434;6.786;2022-07-10T01:41:10;3.35;;;1.25;;
36855;SDS011;22788;51.434;6.786;2022-07-10T01:43:36;5.55;;;1.67;;
36855;SDS011;22788;51.434;6.786;2022-07-10T01:46:02;4.82;;;1.42;;
36855;SDS011;22788;51.434;6.786;2022-07-10T01:48:29;4.25;;;1.50;;
36855;SDS011;22788;51.434;6.786;2022-07-10T01:50:55;4.47;;;1.40;;
36855;SDS011;22788;51.434;6.786;2022-07-10T01:53:21;4.80;;;1.60;;
36855;SDS011;22788;51.434;6.786;2022-07-10T01:55:49;3.60;;;1.42;;
36855;SDS011;22788;51.434;6.786;2022-07-10T01:58:15;5.65;;;1.40;;
36855;SDS011;22788;51.434;6.786;2022-07-10T02:00:41;2.83;;;1.55;;
36855;SDS011;22788;51.434;6.786;2022-07-10T02:03:07;3.42;;;1.95;;
36855;SDS011;22788;51.434;6.786;2022-07-10T02:05:33;4.80;;;1.67;;
36855;SDS011;22788;51.434;6.786;2022-07-10T02:07:59;5.07;;;1.60;;
36855;SDS011;22788;51.434;6.786;2022-07-10T02:10:25;4.20;;;1.40;;
36855;SDS011;22788;51.434;6.786;2022-07-10T02:12:53;3.33;;;1.33;;
36855;SDS011;22788;51.434;6.786;2022-07-10T02:15:19;3.55;;;1.40;;
36855;SDS011;22788;51.434;6.786;2022-07-10T02:17:45;2.63;;;1.27;;
36855;SDS011;22788;51.434;6.786;2022-07-10T02:20:11;2.92;;;1.48;;
36855;SDS011;22788;51.434;6.786;2022-07-10T02:22:37;4.45;;;1.50;;
36855;SDS011;22788;51.434;6.786;2022-07-10T02:25:03;3.10;;;1.55;;
36855;SDS011;22788;51.434;6.786;2022-07-10T02:27:31;3.22;;;1.50;;
36855;SDS011;22788;51.434;6.786;2022-07-10T02:29:59;6.03;;;1.42;;
36855;SDS011;22788;51.434;6.786;2022-07-10T02:32:25;3.13;;;1.40;;
36855;SDS011;22788;51.434;6.786;2022-07-10T02:34:51;2.65;;;1.67;;
36855;SDS011;22788;51.434;6.786;2022-07-10T02:37:17;3.10;;;1.55;;
36855;SDS011;22788;51.434;6.786;2022-07-10T02:39:43;4.35;;;1.50;;
36855;SDS011;22788;51.434;6.786;2022-07-10T02:42:09;4.22;;;1.63;;
36855;SDS011;22788;51.434;6.786;2022-07-10T02:44:35;4.05;;;1.73;;
36855;SDS011;22788;51.434;6.786;2022-07-10T02:47:03;4.60;;;1.70;;
36855;SDS011;22788;51.434;6.786;2022-07-10T02:49:29;5.80;;;1.45;;
36855;SDS011;22788;51.434;6.786;2022-07-10T02:51:55;4.22;;;1.83;;
36855;SDS011;22788;51.434;6.786;2022-07-10T02:54:21;3.17;;;1.38;;
36855;SDS011;22788;51.434;6.786;2022-07-10T02:56:47;7.30;;;1.73;;
36855;SDS011;22788;51.434;6.786;2022-07-10T02:59:13;6.60;;;1.73;;
36855;SDS011;22788;51.434;6.786;2022-07-10T03:01:39;4.20;;;1.45;;
36855;SDS011;22788;51.434;6.786;2022-07-10T03:04:07;4.38;;;1.38;;
36855;SDS011;22788;51.434;6.786;2022-07-10T03:06:33;7.78;;;1.73;;
36855;SDS011;22788;51.434;6.786;2022-07-10T03:08:59;2.90;;;1.30;;
36855;SDS011;22788;51.434;6.786;2022-07-10T03:11:25;2.70;;;1.48;;
36855;SDS011;22788;51.434;6.786;2022-07-10T03:13:51;2.78;;;1.50;;
36855;SDS011;22788;51.434;6.786;2022-07-10T03:16:17;6.40;;;1.60;;
36855;SDS011;22788;51.434;6.786;2022-07-10T03:18:43;3.47;;;1.70;;
36855;SDS011;22788;51.434;6.786;2022-07-10T03:21:10;5.53;;;1.70;;
36855;SDS011;22788;51.434;6.786;2022-07-10T03:23:36;4.72;;;1.77;;
36855;SDS011;22788;51.434;6.786;2022-07-10T03:26:02;4.60;;;1.52;;
36855;SDS011;22788;51.434;6.786;2022-07-10T03:28:29;4.30;;;1.40;;
36855;SDS011;22788;51.434;6.786;2022-07-10T03:30:55;4.63;;;1.52;;
36855;SDS011;22788;51.434;6.786;2022-07-10T03:33:21;2.90;;;1.55;;
36855;SDS011;22788;51.434;6.786;2022-07-10T03:35:48;4.15;;;1.52;;
36855;SDS011;22788;51.434;6.786;2022-07-10T03:38:15;4.10;;;1.80;;
36855;SDS011;22788;51.434;6.786;2022-07-10T03:40:41;4.97;;;1.48;;
36855;SDS011;22788;51.434;6.786;2022-07-10T03:43:07;4.63;;;1.67;;
36855;SDS011;22788;51.434;6.786;2022-07-10T03:45:33;4.13;;;1.70;;
36855;SDS011;22788;51.434;6.786;2022-07-10T03:47:59;3.83;;;1.45;;
36855;SDS011;22788;51.434;6.786;2022-07-10T03:50:25;3.28;;;1.23;;
36855;SDS011;22788;51.434;6.786;2022-07-10T03:52:51;3.05;;;1.30;;
36855;SDS011;22788;51.434;6.786;2022-07-10T03:55:19;2.42;;;1.30;;
36855;SDS011;22788;51.434;6.786;2022-07-10T03:57:45;7.95;;;1.77;;
36855;SDS011;22788;51.434;6.786;2022-07-10T04:00:11;3.72;;;1.60;;
36855;SDS011;22788;51.434;6.786;2022-07-10T04:02:38;4.18;;;1.40;;
36855;SDS011;22788;51.434;6.786;2022-07-10T04:05:04;1.83;;;1.30;;
36855;SDS011;22788;51.434;6.786;2022-07-10T04:07:31;1.60;;;1.27;;
36855;SDS011;22788;51.434;6.786;2022-07-10T04:09:57;3.83;;;1.55;;
36855;SDS011;22788;51.434;6.786;2022-07-10T04:12:25;4.20;;;1.40;;
36855;SDS011;22788;51.434;6.786;2022-07-10T04:14:52;3.90;;;1.50;;
36855;SDS011;22788;51.434;6.786;2022-07-10T04:17:18;3.92;;;1.42;;
36855;SDS011;22788;51.434;6.786;2022-07-10T04:19:44;6.32;;;1.80;;
36855;SDS011;22788;51.434;6.786;2022-07-10T04:22:11;3.45;;;1.25;;
36855;SDS011;22788;51.434;6.786;2022-07-10T04:24:37;3.75;;;1.65;;
36855;SDS011;22788;51.434;6.786;2022-07-10T04:27:03;2.25;;;1.23;;
36855;SDS011;22788;51.434;6.786;2022-07-10T04:29:31;3.17;;;1.50;;
36855;SDS011;22788;51.434;6.786;2022-07-10T04:31:57;3.70;;;1.63;;
36855;SDS011;22788;51.434;6.786;2022-07-10T04:34:23;4.78;;;1.30;;
36855;SDS011;22788;51.434;6.786;2022-07-10T04:36:49;3.05;;;1.33;;
36855;SDS011;22788;51.434;6.786;2022-07-10T04:39:15;4.30;;;1.58;;
36855;SDS011;22788;51.434;6.786;2022-07-10T04:41:41;3.22;;;1.55;;
36855;SDS011;22788;51.434;6.786;2022-07-10T04:44:07;4.40;;;1.30;;
36855;SDS011;22788;51.434;6.786;2022-07-10T04:46:35;5.15;;;1.75;;
36855;SDS011;22788;51.434;6.786;2022-07-10T04:49:01;3.50;;;1.38;;
36855;SDS011;22788;51.434;6.786;2022-07-10T04:51:27;3.20;;;1.25;;
36855;SDS011;22788;51.434;6.786;2022-07-10T04:53:53;1.63;;;1.10;;
36855;SDS011;22788;51.434;6.786;2022-07-10T04:56:19;3.03;;;1.40;;
36855;SDS011;22788;51.434;6.786;2022-07-10T04:58:45;2.60;;;1.50;;
36855;SDS011;22788;51.434;6.786;2022-07-10T05:01:11;3.83;;;1.42;;
36855;SDS011;22788;51.434;6.786;2022-07-10T05:03:39;3.03;;;1.50;;
36855;SDS011;22788;51.434;6.786;2022-07-10T05:06:05;3.90;;;1.40;;
36855;SDS011;22788;51.434;6.786;2022-07-10T05:08:31;3.50;;;1.33;;
36855;SDS011;22788;51.434;6.786;2022-07-10T05:10:57;2.88;;;1.40;;
36855;SDS011;22788;51.434;6.786;2022-07-10T05:13:24;3.85;;;1.65;;
36855;SDS011;22788;51.434;6.786;2022-07-10T05:15:50;4.78;;;1.50;;
36855;SDS011;22788;51.434;6.786;2022-07-10T05:18:16;3.05;;;1.60;;
36855;SDS011;22788;51.434;6.786;2022-07-10T05:20:43;2.47;;;1.50;;
36855;SDS011;22788;51.434;6.786;2022-07-10T05:23:10;4.60;;;1.60;;
36855;SDS011;22788;51.434;6.786;2022-07-10T05:25:37;3.78;;;1.42;;
36855;SDS011;22788;51.434;6.786;2022-07-10T05:28:03;3.65;;;1.83;;
36855;SDS011;22788;51.434;6.786;2022-07-10T05:30:29;5.00;;;1.52;;
36855;SDS011;22788;51.434;6.786;2022-07-10T05:32:55;2.13;;;1.33;;
36855;SDS011;22788;51.434;6.786;2022-07-10T05:35:21;4.25;;;1.55;;
36855;SDS011;22788;51.434;6.786;2022-07-10T05:37:49;4.47;;;2.08;;
36855;SDS011;22788;51.434;6.786;2022-07-10T05:40:15;7.10;;;1.98;;
36855;SDS011;22788;51.434;6.786;2022-07-10T05:42:41;4.40;;;1.42;;
36855;SDS011;22788;51.434;6.786;2022-07-10T05:45:07;4.55;;;1.45;;
36855;SDS011;22788;51.434;6.786;2022-07-10T05:47:34;4.10;;;1.45;;
36855;SDS011;22788;51.434;6.786;2022-07-10T05:50:00;4.15;;;1.30;;
36855;SDS011;22788;51.434;6.786;2022-07-10T05:52:26;3.40;;;1.60;;
36855;SDS011;22788;51.434;6.786;2022-07-10T05:54:54;4.88;;;1.67;;
36855;SDS011;22788;51.434;6.786;2022-07-10T05:57:21;3.45;;;1.50;;
36855;SDS011;22788;51.434;6.786;2022-07-10T05:59:47;3.60;;;1.70;;
36855;SDS011;22788;51.434;6.786;2022-07-10T06:02:13;3.55;;;1.40;;
36855;SDS011;22788;51.434;6.786;2022-07-10T06:04:39;5.55;;;1.58;;
36855;SDS011;22788;51.434;6.786;2022-07-10T06:07:05;6.55;;;2.17;;
36855;SDS011;22788;51.434;6.786;2022-07-10T06:09:31;5.65;;;1.73;;
36855;SDS011;22788;51.434;6.786;2022-07-10T06:11:58;3.58;;;1.48;;
36855;SDS011;22788;51.434;6.786;2022-07-10T06:14:25;5.03;;;1.90;;
36855;SDS011;22788;51.434;6.786;2022-07-10T06:16:51;6.43;;;1.67;;
36855;SDS011;22788;51.434;6.786;2022-07-10T06:19:17;3.67;;;1.40;;
36855;SDS011;22788;51.434;6.786;2022-07-10T06:21:43;4.38;;;1.75;;
36855;SDS011;22788;51.434;6.786;2022-07-10T06:24:10;3.17;;;1.45;;
36855;SDS011;22788;51.434;6.786;2022-07-10T06:26:36;2.90;;;1.33;;
36855;SDS011;22788;51.434;6.786;2022-07-10T06:29:03;4.03;;;1.67;;
36855;SDS011;22788;51.434;6.786;2022-07-10T06:31:30;4.82;;;1.67;;
36855;SDS011;22788;51.434;6.786;2022-07-10T06:33:56;2.90;;;1.35;;
36855;SDS011;22788;51.434;6.786;2022-07-10T06:36:22;3.35;;;1.25;;
36855;SDS011;22788;51.434;6.786;2022-07-10T06:38:48;3.25;;;1.20;;
36855;SDS011;22788;51.434;6.786;2022-07-10T06:41:14;4.75;;;1.40;;
36855;SDS011;22788;51.434;6.786;2022-07-10T06:43:40;3.83;;;1.35;;
36855;SDS011;22788;51.434;6.786;2022-07-10T06:46:07;3.80;;;1.60;;
36855;SDS011;22788;51.434;6.786;2022-07-10T06:48:33;3.63;;;1.65;;
36855;SDS011;22788;51.434;6.786;2022-07-10T06:51:00;5.00;;;1.67;;
36855;SDS011;22788;51.434;6.786;2022-07-10T06:53:26;6.47;;;2.00;;
36855;SDS011;22788;51.434;6.786;2022-07-10T06:55:52;2.33;;;1.27;;
36855;SDS011;22788;51.434;6.786;2022-07-10T06:58:18;3.28;;;1.45;;
36855;SDS011;22788;51.434;6.786;2022-07-10T07:00:44;4.45;;;1.50;;
36855;SDS011;22788;51.434;6.786;2022-07-10T07:03:12;5.22;;;1.70;;
36855;SDS011;22788;51.434;6.786;2022-07-10T07:05:38;5.88;;;1.85;;
36855;SDS011;22788;51.434;6.786;2022-07-10T07:08:04;5.97;;;1.80;;
36855;SDS011;22788;51.434;6.786;2022-07-10T07:10:30;4.28;;;1.65;;
36855;SDS011;22788;51.434;6.786;2022-07-10T07:12:56;4.85;;;1.45;;
36855;SDS011;22788;51.434;6.786;2022-07-10T07:15:22;2.72;;;1.67;;
36855;SDS011;22788;51.434;6.786;2022-07-10T07:17:48;4.60;;;1.65;;
36855;SDS011;22788;51.434;6.786;2022-07-10T07:20:16;3.17;;;1.50;;
36855;SDS011;22788;51.434;6.786;2022-07-10T07:22:42;4.82;;;1.77;;
36855;SDS011;22788;51.434;6.786;2022-07-10T07:25:09;3.17;;;2.15;;
36855;SDS011;22788;51.434;6.786;2022-07-10T07:27:37;3.40;;;2.08;;
36855;SDS011;22788;51.434;6.786;2022-07-10T07:30:04;6.97;;;2.50;;
36855;SDS011;22788;51.434;6.786;2022-07-10T07:32:32;6.65;;;1.90;;
36855;SDS011;22788;51.434;6.786;2022-07-10T07:34:58;4.88;;;1.80;;
36855;SDS011;22788;51.434;6.786;2022-07-10T07:37:35;4.07;;;1.63;;
36855;SDS011;22788;51.434;6.786;2022-07-10T07:40:02;4.10;;;1.70;;
36855;SDS011;22788;51.434;6.786;2022-07-10T07:42:29;4.60;;;2.10;;
36855;SDS011;22788;51.434;6.786;2022-07-10T07:44:55;2.50;;;1.85;;
36855;SDS011;22788;51.434;6.786;2022-07-10T07:47:21;9.70;;;2.13;;
36855;SDS011;22788;51.434;6.786;2022-07-10T07:49:47;2.67;;;1.63;;
36855;SDS011;22788;51.434;6.786;2022-07-10T07:52:13;4.05;;;2.05;;
36855;SDS011;22788;51.434;6.786;2022-07-10T07:54:40;3.97;;;1.58;;
36855;SDS011;22788;51.434;6.786;2022-07-10T07:57:06;6.13;;;1.90;;
36855;SDS011;22788;51.434;6.786;2022-07-10T07:59:32;6.35;;;2.03;;
36855;SDS011;22788;51.434;6.786;2022-07-10T08:01:58;6.72;;;2.10;;
36855;SDS011;22788;51.434;6.786;2022-07-10T08:04:24;3.15;;;1.67;;
36855;SDS011;22788;51.434;6.786;2022-07-10T08:06:50;5.95;;;1.67;;
36855;SDS011;22788;51.434;6.786;2022-07-10T08:09:17;4.13;;;2.05;;
36855;SDS011;22788;51.434;6.786;2022-07-10T08:11:44;3.00;;;2.00;;
36855;SDS011;22788;51.434;6.786;2022-07-10T08:14:10;3.25;;;2.00;;
36855;SDS011;22788;51.434;6.786;2022-07-10T08:16:36;4.25;;;2.00;;
36855;SDS011;22788;51.434;6.786;2022-07-10T08:19:02;5.40;;;2.03;;
36855;SDS011;22788;51.434;6.786;2022-07-10T08:21:28;4.72;;;1.77;;
36855;SDS011;22788;51.434;6.786;2022-07-10T08:23:54;2.35;;;1.80;;
36855;SDS011;22788;51.434;6.786;2022-07-10T08:26:20;3.38;;;1.90;;
36855;SDS011;22788;51.434;6.786;2022-07-10T08:28:48;4.25;;;1.77;;
36855;SDS011;22788;51.434;6.786;2022-07-10T08:31:14;7.95;;;2.30;;
36855;SDS011;22788;51.434;6.786;2022-07-10T08:33:40;5.50;;;2.00;;
36855;SDS011;22788;51.434;6.786;2022-07-10T08:36:06;2.40;;;1.65;;
36855;SDS011;22788;51.434;6.786;2022-07-10T08:38:32;3.08;;;1.90;;
36855;SDS011;22788;51.434;6.786;2022-07-10T08:40:58;6.72;;;2.30;;
36855;SDS011;22788;51.434;6.786;2022-07-10T08:43:26;3.92;;;2.15;;
36855;SDS011;22788;51.434;6.786;2022-07-10T08:45:54;2.40;;;1.90;;
36855;SDS011;22788;51.434;6.786;2022-07-10T08:48:21;4.35;;;2.10;;
36855;SDS011;22788;51.434;6.786;2022-07-10T08:50:51;3.90;;;2.05;;
36855;SDS011;22788;51.434;6.786;2022-07-10T08:53:22;4.00;;;1.90;;
36855;SDS011;22788;51.434;6.786;2022-07-10T08:55:52;2.80;;;1.80;;
36855;SDS011;22788;51.434;6.786;2022-07-10T08:58:18;8.23;;;1.90;;
36855;SDS011;22788;51.434;6.786;2022-07-10T09:00:45;4.60;;;1.73;;
36855;SDS011;22788;51.434;6.786;2022-07-10T09:03:12;5.55;;;2.00;;
36855;SDS011;22788;51.434;6.786;2022-07-10T09:05:38;3.75;;;2.40;;
36855;SDS011;22788;51.434;6.786;2022-07-10T09:08:07;4.93;;;2.40;;
36855;SDS011;22788;51.434;6.786;2022-07-10T09:10:46;3.63;;;1.98;;
36855;SDS011;22788;51.434;6.786;2022-07-10T09:13:13;3.92;;;2.35;;
36855;SDS011;22788;51.434;6.786;2022-07-10T09:15:39;3.30;;;2.40;;
36855;SDS011;22788;51.434;6.786;2022-07-10T09:18:05;3.80;;;2.10;;
36855;SDS011;22788;51.434;6.786;2022-07-10T09:20:33;4.03;;;2.45;;
36855;SDS011;22788;51.434;6.786;2022-07-10T09:23:08;5.07;;;2.30;;
36855;SDS011;22788;51.434;6.786;2022-07-10T09:25:43;4.40;;;2.17;;
36855;SDS011;22788;51.434;6.786;2022-07-10T09:28:09;5.60;;;2.10;;
36855;SDS011;22788;51.434;6.786;2022-07-10T09:30:35;6.22;;;2.30;;
36855;SDS011;22788;51.434;6.786;2022-07-10T09:38:49;3.97;;;2.30;;
36855;SDS011;22788;51.434;6.786;2022-07-10T09:41:17;3.90;;;2.30;;
36855;SDS011;22788;51.434;6.786;2022-07-10T09:43:44;6.68;;;2.30;;
36855;SDS011;22788;51.434;6.786;2022-07-10T09:46:11;2.63;;;1.83;;
36855;SDS011;22788;51.434;6.786;2022-07-10T09:48:38;4.45;;;2.10;;
36855;SDS011;22788;51.434;6.786;2022-07-10T09:51:04;4.45;;;2.30;;
36855;SDS011;22788;51.434;6.786;2022-07-10T09:53:34;3.45;;;1.80;;
36855;SDS011;22788;51.434;6.786;2022-07-10T09:56:04;4.63;;;1.90;;
36855;SDS011;22788;51.434;6.786;2022-07-10T09:58:32;3.03;;;1.83;;
36855;SDS011;22788;51.434;6.786;2022-07-10T10:01:00;5.40;;;2.35;;
36855;SDS011;22788;51.434;6.786;2022-07-10T10:03:27;5.05;;;2.00;;
36855;SDS011;22788;51.434;6.786;2022-07-10T10:05:54;3.42;;;2.03;;
36855;SDS011;22788;51.434;6.786;2022-07-10T10:08:24;3.65;;;2.00;;
36855;SDS011;22788;51.434;6.786;2022-07-10T10:10:51;3.83;;;1.80;;
36855;SDS011;22788;51.434;6.786;2022-07-10T10:13:17;5.50;;;1.83;;
36855;SDS011;22788;51.434;6.786;2022-07-10T10:15:45;2.33;;;1.38;;
36855;SDS011;22788;51.434;6.786;2022-07-10T10:18:12;3.03;;;1.80;;
36855;SDS011;22788;51.434;6.786;2022-07-10T10:20:40;3.10;;;1.63;;
36855;SDS011;22788;51.434;6.786;2022-07-10T10:23:09;3.00;;;1.50;;
36855;SDS011;22788;51.434;6.786;2022-07-10T10:25:37;1.52;;;1.35;;
36855;SDS011;22788;51.434;6.786;2022-07-10T10:28:04;4.80;;;1.60;;
36855;SDS011;22788;51.434;6.786;2022-07-10T10:30:32;2.60;;;1.58;;
36855;SDS011;22788;51.434;6.786;2022-07-10T10:33:01;4.25;;;1.60;;
36855;SDS011;22788;51.434;6.786;2022-07-10T10:35:41;4.40;;;1.40;;
36855;SDS011;22788;51.434;6.786;2022-07-10T10:38:07;3.15;;;1.50;;
36855;SDS011;22788;51.434;6.786;2022-07-10T10:40:33;4.75;;;1.70;;
36855;SDS011;22788;51.434;6.786;2022-07-10T10:45:55;1.42;;;1.30;;
36855;SDS011;22788;51.434;6.786;2022-07-10T10:48:21;3.67;;;1.63;;
36855;SDS011;22788;51.434;6.786;2022-07-10T10:50:47;3.08;;;1.40;;
36855;SDS011;22788;51.434;6.786;2022-07-10T10:53:15;1.65;;;1.50;;
36855;SDS011;22788;51.434;6.786;2022-07-10T10:58:45;1.88;;;1.38;;
36855;SDS011;22788;51.434;6.786;2022-07-10T11:01:24;2.03;;;1.60;;
36855;SDS011;22788;51.434;6.786;2022-07-10T11:06:41;2.70;;;1.55;;
36855;SDS011;22788;51.434;6.786;2022-07-10T11:09:20;3.60;;;1.45;;
36855;SDS011;22788;51.434;6.786;2022-07-10T11:11:57;1.65;;;1.20;;
36855;SDS011;22788;51.434;6.786;2022-07-10T11:14:23;3.53;;;1.15;;
36855;SDS011;22788;51.434;6.786;2022-07-10T11:16:53;3.33;;;1.60;;
36855;SDS011;22788;51.434;6.786;2022-07-10T11:19:20;3.03;;;1.40;;
36855;SDS011;22788;51.434;6.786;2022-07-10T11:21:47;2.25;;;1.50;;
36855;SDS011;22788;51.434;6.786;2022-07-10T11:24:23;4.28;;;1.70;;
36855;SDS011;22788;51.434;6.786;2022-07-10T11:27:06;1.95;;;1.35;;
36855;SDS011;22788;51.434;6.786;2022-07-10T11:29:56;3.10;;;1.45;;
36855;SDS011;22788;51.434;6.786;2022-07-10T11:32:24;2.20;;;1.50;;
36855;SDS011;22788;51.434;6.786;2022-07-10T11:34:50;3.47;;;1.40;;
36855;SDS011;22788;51.434;6.786;2022-07-10T11:37:17;2.40;;;1.48;;
36855;SDS011;22788;51.434;6.786;2022-07-10T11:39:43;6.25;;;1.80;;
36855;SDS011;22788;51.434;6.786;2022-07-10T11:42:09;6.97;;;1.60;;
36855;SDS011;22788;51.434;6.786;2022-07-10T11:44:35;2.63;;;1.60;;
36855;SDS011;22788;51.434;6.786;2022-07-10T11:47:01;4.53;;;1.85;;
36855;SDS011;22788;51.434;6.786;2022-07-10T11:49:30;3.70;;;1.63;;
36855;SDS011;22788;51.434;6.786;2022-07-10T11:52:00;3.25;;;1.85;;
36855;SDS011;22788;51.434;6.786;2022-07-10T11:54:28;4.40;;;1.90;;
36855;SDS011;22788;51.434;6.786;2022-07-10T11:56:54;2.55;;;1.70;;
36855;SDS011;22788;51.434;6.786;2022-07-10T11:59:23;2.13;;;1.73;;
36855;SDS011;22788;51.434;6.786;2022-07-10T12:01:50;1.90;;;1.60;;
36855;SDS011;22788;51.434;6.786;2022-07-10T12:04:18;2.40;;;1.60;;
36855;SDS011;22788;51.434;6.786;2022-07-10T12:06:46;4.95;;;1.95;;
36855;SDS011;22788;51.434;6.786;2022-07-10T12:09:13;5.10;;;1.80;;
36855;SDS011;22788;51.434;6.786;2022-07-10T12:11:41;4.30;;;1.85;;
36855;SDS011;22788;51.434;6.786;2022-07-10T12:14:09;7.40;;;1.85;;
36855;SDS011;22788;51.434;6.786;2022-07-10T12:16:37;4.05;;;1.80;;
36855;SDS011;22788;51.434;6.786;2022-07-10T12:19:03;2.67;;;1.67;;
36855;SDS011;22788;51.434;6.786;2022-07-10T12:21:31;3.20;;;1.88;;
36855;SDS011;22788;51.434;6.786;2022-07-10T12:23:59;1.95;;;1.75;;
36855;SDS011;22788;51.434;6.786;2022-07-10T12:26:31;3.58;;;1.50;;
36855;SDS011;22788;51.434;6.786;2022-07-10T12:28:58;2.47;;;1.30;;
36855;SDS011;22788;51.434;6.786;2022-07-10T12:31:24;1.35;;;1.25;;
36855;SDS011;22788;51.434;6.786;2022-07-10T12:33:52;3.22;;;1.52;;
36855;SDS011;22788;51.434;6.786;2022-07-10T12:36:19;2.55;;;1.50;;
36855;SDS011;22788;51.434;6.786;2022-07-10T12:38:52;6.38;;;1.85;;
36855;SDS011;22788;51.434;6.786;2022-07-10T12:41:20;2.20;;;1.45;;
36855;SDS011;22788;51.434;6.786;2022-07-10T12:43:46;3.25;;;1.50;;
36855;SDS011;22788;51.434;6.786;2022-07-10T12:46:12;4.13;;;1.90;;
36855;SDS011;22788;51.434;6.786;2022-07-10T12:48:39;3.05;;;1.65;;
36855;SDS011;22788;51.434;6.786;2022-07-10T12:51:18;2.38;;;1.40;;
36855;SDS011;22788;51.434;6.786;2022-07-10T12:53:46;2.75;;;1.42;;
36855;SDS011;22788;51.434;6.786;2022-07-10T12:56:26;1.98;;;1.63;;
36855;SDS011;22788;51.434;6.786;2022-07-10T12:58:57;2.78;;;1.70;;
36855;SDS011;22788;51.434;6.786;2022-07-10T13:01:23;3.13;;;1.77;;
36855;SDS011;22788;51.434;6.786;2022-07-10T13:03:56;2.90;;;1.50;;
36855;SDS011;22788;51.434;6.786;2022-07-10T13:06:27;2.13;;;1.52;;
36855;SDS011;22788;51.434;6.786;2022-07-10T13:08:54;4.60;;;1.98;;
36855;SDS011;22788;51.434;6.786;2022-07-10T13:11:21;3.38;;;1.85;;
36855;SDS011;22788;51.434;6.786;2022-07-10T13:13:48;3.03;;;1.42;;
36855;SDS011;22788;51.434;6.786;2022-07-10T13:16:15;2.15;;;1.63;;
36855;SDS011;22788;51.434;6.786;2022-07-10T13:18:41;4.60;;;2.22;;
36855;SDS011;22788;51.434;6.786;2022-07-10T13:21:08;3.95;;;1.90;;
36855;SDS011;22788;51.434;6.786;2022-07-10T13:23:34;2.20;;;1.35;;
36855;SDS011;22788;51.434;6.786;2022-07-10T13:26:00;1.73;;;1.63;;
36855;SDS011;22788;51.434;6.786;2022-07-10T13:28:26;2.88;;;1.63;;
36855;SDS011;22788;51.434;6.786;2022-07-10T13:30:54;2.58;;;1.60;;
36855;SDS011;22788;51.434;6.786;2022-07-10T13:33:20;3.88;;;1.70;;
36855;SDS011;22788;51.434;6.786;2022-07-10T13:35:46;2.97;;;1.45;;
36855;SDS011;22788;51.434;6.786;2022-07-10T13:38:12;5.10;;;1.50;;
36855;SDS011;22788;51.434;6.786;2022-07-10T13:40:38;2.97;;;1.70;;
36855;SDS011;22788;51.434;6.786;2022-07-10T13:43:05;3.00;;;1.60;;
36855;SDS011;22788;51.434;6.786;2022-07-10T13:45:31;1.60;;;1.50;;
36855;SDS011;22788;51.434;6.786;2022-07-10T13:48:01;2.30;;;1.35;;
36855;SDS011;22788;51.434;6.786;2022-07-10T13:50:28;2.55;;;1.60;;
36855;SDS011;22788;51.434;6.786;2022-07-10T13:52:54;3.88;;;1.52;;
36855;SDS011;22788;51.434;6.786;2022-07-10T13:55:20;3.22;;;1.45;;
36855;SDS011;22788;51.434;6.786;2022-07-10T13:57:47;3.45;;;1.40;;
36855;SDS011;22788;51.434;6.786;2022-07-10T14:00:13;3.67;;;1.50;;
36855;SDS011;22788;51.434;6.786;2022-07-10T14:02:39;4.60;;;1.33;;
36855;SDS011;22788;51.434;6.786;2022-07-10T14:05:07;3.38;;;1.70;;
36855;SDS011;22788;51.434;6.786;2022-07-10T14:07:33;2.13;;;1.60;;
36855;SDS011;22788;51.434;6.786;2022-07-10T14:09:59;4.15;;;1.70;;
36855;SDS011;22788;51.434;6.786;2022-07-10T14:12:25;4.60;;;1.65;;
36855;SDS011;22788;51.434;6.786;2022-07-10T14:14:51;1.75;;;1.50;;
36855;SDS011;22788;51.434;6.786;2022-07-10T14:17:17;4.25;;;1.90;;
36855;SDS011;22788;51.434;6.786;2022-07-10T14:19:43;2.20;;;1.40;;
36855;SDS011;22788;51.434;6.786;2022-07-10T14:22:11;3.17;;;1.77;;
36855;SDS011;22788;51.434;6.786;2022-07-10T14:24:37;1.92;;;1.30;;
36855;SDS011;22788;51.434;6.786;2022-07-10T14:27:03;2.47;;;1.52;;
36855;SDS011;22788;51.434;6.786;2022-07-10T14:29:29;2.33;;;1.50;;
36855;SDS011;22788;51.434;6.786;2022-07-10T14:31:56;2.10;;;1.30;;
36855;SDS011;22788;51.434;6.786;2022-07-10T14:34:22;4.07;;;1.48;;
36855;SDS011;22788;51.434;6.786;2022-07-10T14:36:48;4.15;;;1.75;;
36855;SDS011;22788;51.434;6.786;2022-07-10T14:39:16;2.22;;;1.60;;
36855;SDS011;22788;51.434;6.786;2022-07-10T14:41:42;3.47;;;1.50;;
36855;SDS011;22788;51.434;6.786;2022-07-10T14:44:08;4.18;;;1.58;;
36855;SDS011;22788;51.434;6.786;2022-07-10T14:46:34;2.10;;;1.38;;
36855;SDS011;22788;51.434;6.786;2022-07-10T14:49:00;2.28;;;1.35;;
36855;SDS011;22788;51.434;6.786;2022-07-10T14:51:26;2.33;;;1.65;;
36855;SDS011;22788;51.434;6.786;2022-07-10T14:53:53;2.72;;;1.40;;
36855;SDS011;22788;51.434;6.786;2022-07-10T14:56:20;4.25;;;1.50;;
36855;SDS011;22788;51.434;6.786;2022-07-10T14:58:46;3.30;;;1.65;;
36855;SDS011;22788;51.434;6.786;2022-07-10T15:01:12;2.78;;;1.73;;